createdAt,value
2022-10-17T00:00:06.264Z,1.80
2022-10-17T00:02:33.015Z,1.55
2022-10-17T00:05:01.835Z,1.75
2022-10-17T00:07:28.521Z,1.60
2022-10-17T00:09:57.219Z,1.70
2022-10-17T00:12:25.741Z,1.80
2022-10-17T00:14:52.273Z,1.58
2022-10-17T00:17:18.808Z,1.60
2022-10-17T00:19:45.390Z,1.80
2022-10-17T00:22:12.901Z,1.38
2022-10-17T00:24:45.650Z,1.50
2022-10-17T00:27:14.344Z,1.70
2022-10-17T00:29:40.945Z,1.17
2022-10-17T00:32:07.440Z,1.40
2022-10-17T00:34:40.499Z,1.65
2022-10-17T00:37:07.008Z,1.90
2022-10-17T00:39:33.514Z,1.50
2022-10-17T00:42:01.759Z,1.73
2022-10-17T00:44:31.126Z,1.70
2022-10-17T00:47:04.403Z,1.83
2022-10-17T00:49:34.456Z,1.77
2022-10-17T00:52:06.284Z,1.67
2022-10-17T00:54:35.907Z,1.60
2022-10-17T00:57:03.134Z,1.75
2022-10-17T00:59:33.311Z,2.58
2022-10-17T01:02:15.728Z,1.70
2022-10-17T01:04:51.092Z,1.95
2022-10-17T01:07:17.921Z,2.15
2022-10-17T01:09:46.384Z,1.70
2022-10-17T01:12:22.260Z,2.10
2022-10-17T01:14:58.402Z,1.70
2022-10-17T01:17:49.817Z,2.08
2022-10-17T01:20:46.099Z,2.17
2022-10-17T01:23:34.657Z,1.98
2022-10-17T01:26:18.018Z,2.05
2022-10-17T01:29:20.195Z,1.70
2022-10-17T01:32:13.068Z,2.10
2022-10-17T01:34:47.936Z,2.20
2022-10-17T01:37:35.569Z,2.25
2022-10-17T01:40:11.389Z,1.80
2022-10-17T01:45:21.379Z,1.75
2022-10-17T01:47:51.612Z,2.20
2022-10-17T01:50:30.334Z,2.50
2022-10-17T01:53:03.991Z,2.17
2022-10-17T01:55:43.295Z,2.40
2022-10-17T01:58:36.752Z,2.17
2022-10-17T02:01:07.721Z,2.10
2022-10-17T02:03:35.605Z,2.40
2022-10-17T02:06:04.669Z,2.00
2022-10-17T02:09:46.820Z,2.50
2022-10-17T02:12:32.283Z,2.42
2022-10-17T02:15:19.173Z,2.03
2022-10-17T02:18:15.853Z,2.47
2022-10-17T02:23:37.937Z,2.30
2022-10-17T02:26:22.611Z,2.37
2022-10-17T02:29:16.661Z,2.15
2022-10-17T02:31:56.861Z,2.17
2022-10-17T02:34:32.293Z,2.10
2022-10-17T02:37:02.205Z,2.20
2022-10-17T02:39:30.507Z,1.77
2022-10-17T02:42:00.913Z,2.10
2022-10-17T02:44:29.359Z,2.20
2022-10-17T02:47:03.622Z,2.10
2022-10-17T02:49:37.877Z,1.88
2022-10-17T02:52:16.494Z,1.95
2022-10-17T02:54:51.527Z,2.30
2022-10-17T02:57:56.053Z,2.27
2022-10-17T03:00:26.804Z,2.50
2022-10-17T03:02:54.600Z,2.65
2022-10-17T03:05:31.294Z,2.05
2022-10-17T03:07:57.999Z,2.20
2022-10-17T03:10:24.502Z,1.90
2022-10-17T03:12:52.819Z,2.13
2022-10-17T03:15:19.337Z,1.83
2022-10-17T03:20:24.203Z,2.13
2022-10-17T03:22:50.725Z,2.53
2022-10-17T03:25:17.261Z,2.33
2022-10-17T03:27:43.858Z,3.08
2022-10-17T03:30:10.967Z,2.20
2022-10-17T03:32:37.703Z,2.47
2022-10-17T03:35:14.819Z,2.70
2022-10-17T03:37:41.599Z,2.75
2022-10-17T03:40:08.611Z,2.25
2022-10-17T03:42:35.132Z,2.83
2022-10-17T03:45:01.898Z,3.63
2022-10-17T03:47:29.351Z,2.90
2022-10-17T03:49:56.189Z,2.67
2022-10-17T03:52:22.860Z,2.53
2022-10-17T03:54:50.700Z,2.85
2022-10-17T03:57:18.486Z,2.55
2022-10-17T03:59:45.174Z,2.65
2022-10-17T04:02:11.644Z,2.35
2022-10-17T04:04:38.298Z,2.30
2022-10-17T04:07:04.792Z,2.38
2022-10-17T04:09:31.313Z,2.60
2022-10-17T04:11:59.696Z,2.15
2022-10-17T04:14:26.352Z,2.45
2022-10-17T04:16:53.610Z,2.47
2022-10-17T04:19:22.073Z,2.45
2022-10-17T04:21:48.614Z,2.58
2022-10-17T04:24:15.442Z,2.60
2022-10-17T04:26:43.673Z,3.33
2022-10-17T04:29:11.086Z,2.72
2022-10-17T04:31:37.899Z,3.20
2022-10-17T04:34:04.620Z,2.78
2022-10-17T04:36:31.082Z,2.97
2022-10-17T04:38:57.618Z,3.03
2022-10-17T04:41:31.855Z,2.67
2022-10-17T04:43:58.382Z,2.70
2022-10-17T04:46:24.881Z,2.60
2022-10-17T04:48:51.509Z,2.55
2022-10-17T04:51:20.741Z,2.30
2022-10-17T04:53:51.035Z,2.17
2022-10-17T04:56:22.138Z,2.35
2022-10-17T04:58:49.264Z,2.53
2022-10-17T05:01:23.041Z,2.35
2022-10-17T05:03:51.863Z,2.30
2022-10-17T05:06:23.941Z,2.30
2022-10-17T05:08:50.911Z,2.40
2022-10-17T05:11:20.918Z,2.20
2022-10-17T05:14:01.147Z,2.50
2022-10-17T05:16:30.407Z,2.58
2022-10-17T05:18:59.767Z,2.50
2022-10-17T05:21:27.627Z,2.90
2022-10-17T05:23:54.342Z,2.28
2022-10-17T05:26:21.789Z,2.45
2022-10-17T05:28:48.380Z,2.30
2022-10-17T05:31:15.308Z,2.63
2022-10-17T05:33:41.865Z,2.42
2022-10-17T05:36:08.940Z,2.08
2022-10-17T05:38:36.136Z,2.10
2022-10-17T05:41:05.795Z,2.30
2022-10-17T05:43:33.176Z,2.28
2022-10-17T05:46:05.356Z,2.58
2022-10-17T05:48:32.134Z,2.50
2022-10-17T05:51:00.495Z,2.38
2022-10-17T05:53:33.039Z,2.30
2022-10-17T05:56:01.251Z,2.28
2022-10-17T06:01:17.053Z,2.80
2022-10-17T06:03:45.889Z,2.10
2022-10-17T06:06:14.470Z,2.30
2022-10-17T06:08:41.229Z,2.38
2022-10-17T06:11:10.161Z,2.25
2022-10-17T06:13:38.076Z,2.33
2022-10-17T06:16:04.907Z,2.15
2022-10-17T06:18:31.425Z,2.22
2022-10-17T06:21:12.427Z,2.40
2022-10-17T06:23:39.288Z,2.75
2022-10-17T06:26:07.024Z,2.00
2022-10-17T06:28:36.141Z,2.15
2022-10-17T06:31:11.468Z,1.90
2022-10-17T06:33:40.293Z,2.10
2022-10-17T06:36:08.165Z,2.45
2022-10-17T06:38:35.439Z,2.47
2022-10-17T06:41:13.636Z,2.53
2022-10-17T06:43:43.336Z,2.40
2022-10-17T06:46:10.115Z,2.40
2022-10-17T06:48:43.241Z,2.53
2022-10-17T06:51:11.373Z,2.20
2022-10-17T06:53:40.430Z,2.13
2022-10-17T06:56:08.685Z,2.00
2022-10-17T06:58:39.109Z,2.05
2022-10-17T07:01:17.706Z,2.22
2022-10-17T07:03:48.015Z,2.20
2022-10-17T07:06:18.051Z,2.67
2022-10-17T07:08:45.651Z,2.05
2022-10-17T07:11:13.871Z,2.10
2022-10-17T07:13:40.654Z,2.55
2022-10-17T07:16:18.129Z,1.90
2022-10-17T07:18:44.719Z,2.00
2022-10-17T07:21:11.586Z,2.10
2022-10-17T07:23:38.778Z,2.22
2022-10-17T07:26:08.510Z,2.03
2022-10-17T07:28:36.896Z,1.90
2022-10-17T07:31:05.986Z,1.85
2022-10-17T07:33:32.871Z,1.70
2022-10-17T07:36:00.752Z,1.88
2022-10-17T07:38:28.650Z,1.80
2022-10-17T07:40:56.966Z,1.98
2022-10-17T07:43:24.820Z,1.90
2022-10-17T07:45:58.047Z,2.00
2022-10-17T07:48:25.442Z,2.10
2022-10-17T07:50:52.122Z,1.80
2022-10-17T07:53:19.534Z,2.00
2022-10-17T07:55:46.535Z,1.70
2022-10-17T07:58:14.099Z,1.85
2022-10-17T08:00:42.668Z,1.63
2022-10-17T08:03:10.937Z,1.80
2022-10-17T08:05:37.456Z,1.83
2022-10-17T08:08:06.302Z,1.33
2022-10-17T08:10:37.181Z,1.65
2022-10-17T08:13:03.692Z,1.85
2022-10-17T08:15:32.157Z,2.00
2022-10-17T08:17:59.370Z,3.15
2022-10-17T08:20:26.453Z,2.00
2022-10-17T08:22:56.502Z,2.15
2022-10-17T08:25:23.487Z,2.20
2022-10-17T08:27:50.215Z,1.90
2022-10-17T08:30:17.261Z,1.75
2022-10-17T08:32:43.975Z,1.90
2022-10-17T08:35:14.698Z,1.88
2022-10-17T08:37:43.153Z,1.90
2022-10-17T08:40:17.562Z,1.85
2022-10-17T08:43:13.480Z,1.80
2022-10-17T08:45:54.736Z,2.35
2022-10-17T08:48:30.293Z,1.70
2022-10-17T08:51:17.306Z,1.85
2022-10-17T08:53:54.772Z,1.92
2022-10-17T08:56:44.190Z,2.05
2022-10-17T08:59:18.349Z,2.00
2022-10-17T09:01:51.046Z,2.10
2022-10-17T09:04:27.554Z,2.10
2022-10-17T09:07:05.301Z,1.70
2022-10-17T09:09:44.170Z,1.67
2022-10-17T09:12:16.780Z,1.90
2022-10-17T09:15:24.524Z,1.90
2022-10-17T09:18:03.236Z,2.20
2022-10-17T09:20:42.387Z,2.13
2022-10-17T09:23:18.052Z,1.83
2022-10-17T09:28:20.298Z,1.70
2022-10-17T09:30:54.356Z,2.03
2022-10-17T09:33:35.973Z,1.80
2022-10-17T09:36:29.479Z,1.73
2022-10-17T09:39:12.999Z,1.80
2022-10-17T09:41:47.621Z,2.10
2022-10-17T09:44:21.954Z,2.00
2022-10-17T09:47:00.328Z,2.13
2022-10-17T09:49:33.168Z,2.17
2022-10-17T09:52:03.177Z,2.15
2022-10-17T09:54:41.456Z,1.80
2022-10-17T09:57:10.512Z,2.20
2022-10-17T09:59:41.145Z,1.83
2022-10-17T10:02:27.750Z,1.70
2022-10-17T10:05:04.548Z,1.88
2022-10-17T10:07:37.796Z,1.80
2022-10-17T10:10:22.830Z,1.80
2022-10-17T10:13:16.310Z,2.00
2022-10-17T10:15:45.764Z,1.80
2022-10-17T10:18:36.054Z,2.00
2022-10-17T10:21:13.519Z,2.00
2022-10-17T10:23:47.186Z,1.92
2022-10-17T10:26:25.978Z,2.50
2022-10-17T10:29:00.852Z,2.17
2022-10-17T10:31:32.036Z,2.03
2022-10-17T10:34:07.903Z,1.70
2022-10-17T10:37:05.977Z,1.85
2022-10-17T10:39:43.829Z,1.70
2022-10-17T10:42:28.619Z,1.92
2022-10-17T10:45:00.043Z,1.80
2022-10-17T10:47:32.442Z,2.10
2022-10-17T10:50:25.683Z,1.52
2022-10-17T10:56:51.288Z,2.00
2022-10-17T10:59:36.467Z,1.92
2022-10-17T11:02:12.844Z,1.95
2022-10-17T11:05:30.472Z,1.70
2022-10-17T11:08:24.439Z,1.95
2022-10-17T11:11:23.874Z,1.90
2022-10-17T11:14:02.409Z,1.90
2022-10-17T11:16:28.930Z,1.80
2022-10-17T11:19:06.488Z,1.70
2022-10-17T11:21:48.809Z,1.83
2022-10-17T11:24:22.915Z,1.80
2022-10-17T11:26:56.736Z,1.63
2022-10-17T11:29:30.471Z,1.80
2022-10-17T11:32:11.688Z,1.60
2022-10-17T11:34:48.130Z,1.92
2022-10-17T11:37:23.196Z,1.70
2022-10-17T11:40:31.211Z,1.40
2022-10-17T11:43:02.108Z,1.80
2022-10-17T11:45:39.164Z,1.88
2022-10-17T11:48:13.329Z,1.88
2022-10-17T11:53:44.964Z,1.92
2022-10-17T11:58:53.369Z,1.90
2022-10-17T12:01:36.366Z,1.60
2022-10-17T12:04:21.019Z,1.70
2022-10-17T12:07:11.229Z,1.60
2022-10-17T12:09:52.451Z,2.30
2022-10-17T12:12:33.413Z,1.90
2022-10-17T12:15:11.802Z,2.05
2022-10-17T12:17:41.170Z,2.00
2022-10-17T12:20:37.565Z,2.17
2022-10-17T12:28:17.709Z,1.75
2022-10-17T12:31:06.227Z,1.80
2022-10-17T12:33:50.111Z,1.80
2022-10-17T12:36:22.617Z,1.50
2022-10-17T12:38:50.552Z,1.70
2022-10-17T12:41:39.369Z,1.40
2022-10-17T12:47:17.787Z,1.65
2022-10-17T12:49:53.113Z,1.90
2022-10-17T12:52:26.817Z,1.60
2022-10-17T12:55:13.418Z,1.55
2022-10-17T12:57:51.605Z,1.50
2022-10-17T13:03:22.068Z,1.30
2022-10-17T13:05:57.607Z,1.50
2022-10-17T13:08:32.047Z,1.50
2022-10-17T13:10:58.761Z,1.40
2022-10-17T13:13:39.402Z,1.52
2022-10-17T13:16:08.981Z,1.50
2022-10-17T13:18:35.700Z,1.25
2022-10-17T13:21:11.477Z,2.10
2022-10-17T13:23:38.202Z,1.55
2022-10-17T13:26:06.035Z,1.67
2022-10-17T13:28:37.072Z,1.50
2022-10-17T13:31:05.746Z,1.23
2022-10-17T13:33:40.034Z,1.15
2022-10-17T13:36:17.599Z,1.33
2022-10-17T13:38:48.757Z,1.52
2022-10-17T13:41:36.178Z,1.77
2022-10-17T13:44:11.681Z,1.50
2022-10-17T13:46:40.037Z,1.45
2022-10-17T13:49:35.030Z,1.67
2022-10-17T13:52:03.946Z,1.40
2022-10-17T13:54:35.412Z,1.25
2022-10-17T13:57:05.180Z,1.30
2022-10-17T13:59:40.014Z,1.27
2022-10-17T14:02:15.573Z,1.52
2022-10-17T14:05:11.837Z,1.40
2022-10-17T14:08:05.858Z,1.23
2022-10-17T14:10:27.635Z,1.45
2022-10-17T14:12:56.732Z,1.50
2022-10-17T14:15:27.831Z,1.48
2022-10-17T14:17:59.156Z,1.50
2022-10-17T14:21:19.482Z,1.60
2022-10-17T14:23:41.174Z,1.58
2022-10-17T14:26:15.142Z,1.40
2022-10-17T14:28:45.330Z,1.20
2022-10-17T14:31:17.778Z,1.30
2022-10-17T14:33:51.060Z,1.40
2022-10-17T14:36:23.656Z,1.40
2022-10-17T14:38:52.209Z,1.52
2022-10-17T14:44:26.104Z,1.23
2022-10-17T14:46:57.853Z,1.20
2022-10-17T14:49:36.276Z,1.30
2022-10-17T14:52:18.972Z,1.00
2022-10-17T14:54:54.965Z,0.93
2022-10-17T14:57:24.225Z,1.27
2022-10-17T14:59:55.445Z,1.25
2022-10-17T15:02:29.886Z,1.10
2022-10-17T15:05:00.664Z,1.23
2022-10-17T15:07:29.595Z,1.15
2022-10-17T15:09:56.328Z,2.30
2022-10-17T15:12:25.625Z,1.40
2022-10-17T15:14:53.033Z,1.40
2022-10-17T15:17:26.326Z,2.80
2022-10-17T15:19:53.200Z,1.70
2022-10-17T15:22:19.768Z,1.45
2022-10-17T15:24:50.829Z,1.40
2022-10-17T15:27:24.897Z,1.17
2022-10-17T15:29:51.792Z,1.20
2022-10-17T15:32:20.427Z,1.20
2022-10-17T15:34:46.933Z,1.23
2022-10-17T15:37:21.220Z,1.20
2022-10-17T15:39:54.530Z,1.30
2022-10-17T15:42:23.410Z,1.10
2022-10-17T15:44:50.378Z,0.98
2022-10-17T15:47:37.612Z,1.00
2022-10-17T15:50:06.074Z,2.50
2022-10-17T15:52:32.940Z,5.30
2022-10-17T15:55:04.322Z,3.83
2022-10-17T15:57:36.343Z,3.47
2022-10-17T16:00:04.786Z,4.88
2022-10-17T16:02:31.281Z,4.10
2022-10-17T16:04:57.775Z,3.40
2022-10-17T16:07:26.527Z,2.40
2022-10-17T16:09:53.226Z,2.20
2022-10-17T16:12:30.537Z,1.90
2022-10-17T16:14:57.396Z,1.50
2022-10-17T16:17:23.909Z,1.42
2022-10-17T16:19:56.945Z,1.63
2022-10-17T16:22:36.687Z,1.60
2022-10-17T16:25:17.177Z,1.50
2022-10-17T16:27:47.788Z,1.65
2022-10-17T16:30:14.981Z,1.85
2022-10-17T16:32:43.855Z,1.60
2022-10-17T16:35:20.746Z,1.50
2022-10-17T16:37:57.886Z,1.60
2022-10-17T16:40:25.711Z,1.60
2022-10-17T16:42:52.193Z,1.65
2022-10-17T16:45:21.676Z,1.60
2022-10-17T16:47:49.072Z,1.33
2022-10-17T16:50:16.146Z,1.70
2022-10-17T16:52:44.937Z,1.50
2022-10-17T16:55:11.527Z,1.70
2022-10-17T16:57:38.414Z,1.63
2022-10-17T17:00:08.484Z,1.73
2022-10-17T17:02:35.141Z,1.40
2022-10-17T17:05:01.747Z,1.73
2022-10-17T17:07:29.855Z,1.80
2022-10-17T17:09:56.730Z,1.83
2022-10-17T17:12:25.661Z,1.58
2022-10-17T17:14:54.433Z,1.70
2022-10-17T17:17:37.169Z,1.67
2022-10-17T17:20:07.929Z,1.50
2022-10-17T17:22:37.759Z,1.55
2022-10-17T17:25:07.836Z,1.80
2022-10-17T17:27:34.536Z,1.83
2022-10-17T17:30:01.151Z,1.60
2022-10-17T17:32:27.654Z,1.90
2022-10-17T17:34:54.614Z,1.80
2022-10-17T17:37:23.002Z,2.03
2022-10-17T17:39:49.514Z,1.67
2022-10-17T17:42:17.838Z,1.73
2022-10-17T17:44:45.079Z,1.95
2022-10-17T17:47:11.606Z,1.95
2022-10-17T17:49:42.693Z,2.38
2022-10-17T17:52:09.208Z,2.00
2022-10-17T17:54:38.602Z,1.77
2022-10-17T17:57:09.191Z,1.80
2022-10-17T17:59:35.719Z,1.70
2022-10-17T18:02:06.318Z,2.70
2022-10-17T18:04:35.234Z,2.80
2022-10-17T18:07:01.816Z,2.38
2022-10-17T18:09:28.272Z,2.00
2022-10-17T18:12:00.131Z,2.03
2022-10-17T18:14:30.518Z,2.05
2022-10-17T18:16:56.966Z,1.65
2022-10-17T18:19:28.763Z,2.50
2022-10-17T18:21:55.330Z,1.98
2022-10-17T18:24:22.042Z,2.17
2022-10-17T18:26:59.046Z,2.63
2022-10-17T18:29:26.827Z,2.47
2022-10-17T18:31:53.630Z,2.72
2022-10-17T18:34:20.363Z,2.72
2022-10-17T18:36:47.098Z,2.60
2022-10-17T18:39:17.217Z,2.92
2022-10-17T18:41:43.876Z,2.50
2022-10-17T18:44:12.628Z,2.90
2022-10-17T18:46:42.788Z,2.33
2022-10-17T18:49:11.203Z,2.67
2022-10-17T18:51:37.742Z,3.00
2022-10-17T18:54:04.308Z,2.25
2022-10-17T18:56:34.453Z,2.17
2022-10-17T18:59:01.229Z,2.30
2022-10-17T19:01:28.198Z,2.65
2022-10-17T19:03:59.348Z,2.67
2022-10-17T19:06:28.369Z,2.50
2022-10-17T19:08:55.263Z,2.63
2022-10-17T19:11:26.328Z,2.38
2022-10-17T19:13:54.025Z,2.30
2022-10-17T19:16:23.991Z,2.55
2022-10-17T19:18:52.493Z,2.95
2022-10-17T19:21:22.121Z,2.80
2022-10-17T19:23:51.316Z,2.75
2022-10-17T19:26:20.395Z,2.20
2022-10-17T19:28:47.801Z,2.50
2022-10-17T19:31:17.001Z,2.55
2022-10-17T19:33:52.064Z,2.65
2022-10-17T19:36:25.403Z,2.70
2022-10-17T19:39:01.214Z,2.88
2022-10-17T19:41:28.339Z,2.50
2022-10-17T19:43:54.921Z,2.83
2022-10-17T19:46:25.851Z,2.17
2022-10-17T19:48:53.208Z,2.50
2022-10-17T19:51:24.430Z,2.65
2022-10-17T19:53:52.265Z,2.30
2022-10-17T19:56:20.631Z,2.85
2022-10-17T19:58:48.774Z,2.67
2022-10-17T20:01:20.736Z,2.80
2022-10-17T20:03:47.511Z,2.85
2022-10-17T20:06:15.006Z,2.97
2022-10-17T20:08:52.506Z,2.60
2022-10-17T20:11:25.133Z,2.80
2022-10-17T20:13:54.720Z,2.90
2022-10-17T20:16:26.355Z,3.17
2022-10-17T20:18:56.026Z,3.20
2022-10-17T20:21:27.221Z,2.88
2022-10-17T20:23:56.237Z,2.30
2022-10-17T20:26:37.165Z,2.53
2022-10-17T20:29:11.199Z,3.20
2022-10-17T20:31:42.824Z,3.20
2022-10-17T20:34:14.933Z,4.00
2022-10-17T20:36:41.925Z,3.58
2022-10-17T20:39:10.960Z,3.90
2022-10-17T20:41:39.326Z,3.67
2022-10-17T20:44:06.995Z,3.10
2022-10-17T20:46:41.596Z,3.63
2022-10-17T20:49:15.041Z,3.60
2022-10-17T20:51:41.876Z,3.72
2022-10-17T20:54:09.053Z,3.97
2022-10-17T20:56:37.903Z,3.28
2022-10-17T20:59:12.213Z,3.22
2022-10-17T21:01:50.246Z,3.35
2022-10-17T21:04:44.610Z,3.03
2022-10-17T21:07:09.277Z,3.25
2022-10-17T21:09:37.718Z,3.10
2022-10-17T21:12:05.387Z,3.05
2022-10-17T21:14:33.532Z,2.90
2022-10-17T21:17:04.691Z,2.88
2022-10-17T21:19:32.162Z,3.30
2022-10-17T21:21:58.877Z,3.50
2022-10-17T21:24:25.427Z,3.60
2022-10-17T21:26:55.620Z,4.05
2022-10-17T21:29:23.592Z,3.60
2022-10-17T21:31:50.983Z,3.67
2022-10-17T21:34:21.190Z,4.07
2022-10-17T21:36:50.294Z,3.80
2022-10-17T21:39:17.261Z,4.38
2022-10-17T21:41:44.939Z,3.75
2022-10-17T21:44:17.486Z,4.20
2022-10-17T21:46:44.552Z,4.38
2022-10-17T21:49:13.086Z,4.50
2022-10-17T21:51:40.468Z,4.22
2022-10-17T21:54:07.722Z,4.82
2022-10-17T21:56:35.373Z,4.82
2022-10-17T21:59:03.121Z,4.35
2022-10-17T22:01:39.297Z,4.20
2022-10-17T22:04:10.201Z,4.07
2022-10-17T22:06:40.788Z,4.60
2022-10-17T22:09:21.788Z,4.32
2022-10-17T22:11:51.065Z,4.60
2022-10-17T22:14:19.661Z,4.43
2022-10-17T22:16:49.170Z,4.38
2022-10-17T22:19:18.750Z,3.95
2022-10-17T22:21:45.527Z,4.97
2022-10-17T22:24:16.507Z,4.13
2022-10-17T22:26:43.185Z,3.78
2022-10-17T22:29:10.207Z,4.25
2022-10-17T22:31:49.181Z,4.13
2022-10-17T22:34:17.953Z,3.97
2022-10-17T22:36:44.717Z,4.03
2022-10-17T22:39:13.735Z,3.97
2022-10-17T22:41:40.437Z,4.60
2022-10-17T22:44:07.058Z,4.47
2022-10-17T22:46:36.114Z,4.38
2022-10-17T22:49:02.822Z,4.55
2022-10-17T22:51:29.654Z,4.30
2022-10-17T22:53:58.284Z,4.72
2022-10-17T22:56:24.868Z,3.70
2022-10-17T22:58:51.988Z,4.63
2022-10-17T23:01:24.886Z,4.50
2022-10-17T23:03:52.574Z,4.07
2022-10-17T23:06:19.765Z,3.88
2022-10-17T23:08:46.845Z,3.63
2022-10-17T23:11:13.530Z,4.45
2022-10-17T23:13:41.035Z,3.65
2022-10-17T23:16:08.659Z,4.35
2022-10-17T23:18:36.637Z,3.70
2022-10-17T23:21:03.120Z,3.75
2022-10-17T23:23:31.504Z,3.85
2022-10-17T23:26:07.511Z,3.70
2022-10-17T23:28:35.784Z,3.28
2022-10-17T23:31:21.587Z,3.47
2022-10-17T23:33:49.861Z,3.43
2022-10-17T23:36:19.205Z,3.50
2022-10-17T23:38:48.359Z,3.90
2022-10-17T23:41:16.029Z,3.90
2022-10-17T23:43:43.364Z,2.80
2022-10-17T23:46:10.744Z,3.90
2022-10-17T23:48:38.618Z,3.15
2022-10-17T23:51:06.061Z,3.08
2022-10-17T23:53:32.602Z,3.30
2022-10-17T23:55:59.271Z,3.15
2022-10-17T23:58:25.793Z,3.45
